sensor_id;sensor_type;location;lat;lon;timestamp;P1;durP1;ratioP1;P2;durP2;ratioP2
13832;SDS011;6987;19.472;-99.276;2024-01-11T00:00:45;5.43;;;1.45;;
13832;SDS011;6987;19.472;-99.276;2024-01-11T00:03:17;6.20;;;1.33;;
13832;SDS011;6987;19.472;-99.276;2024-01-11T00:05:46;1.35;;;1.25;;
13832;SDS011;6987;19.472;-99.276;2024-01-11T00:08:15;5.43;;;1.38;;
13832;SDS011;6987;19.472;-99.276;2024-01-11T00:10:44;1.05;;;1.00;;
13832;SDS011;6987;19.472;-99.276;2024-01-11T00:13:13;3.55;;;1.20;;
13832;SDS011;6987;19.472;-99.276;2024-01-11T00:15:42;1.27;;;1.17;;
13832;SDS011;6987;19.472;-99.276;2024-01-11T00:18:12;1.50;;;1.40;;
13832;SDS011;6987;19.472;-99.276;2024-01-11T00:20:43;1.17;;;1.02;;
13832;SDS011;6987;19.472;-99.276;2024-01-11T00:23:12;1.50;;;1.40;;
13832;SDS011;6987;19.472;-99.276;2024-01-11T00:25:41;1.50;;;1.40;;
13832;SDS011;6987;19.472;-99.276;2024-01-11T00:28:10;3.53;;;1.85;;
13832;SDS011;6987;19.472;-99.276;2024-01-11T00:30:39;1.85;;;1.60;;
13832;SDS011;6987;19.472;-99.276;2024-01-11T00:33:07;2.78;;;1.25;;
13832;SDS011;6987;19.472;-99.276;2024-01-11T00:35:38;3.13;;;1.30;;
13832;SDS011;6987;19.472;-99.276;2024-01-11T00:38:06;5.13;;;1.67;;
13832;SDS011;6987;19.472;-99.276;2024-01-11T00:40:35;3.30;;;1.40;;
13832;SDS011;6987;19.472;-99.276;2024-01-11T00:43:04;0.90;;;0.90;;
13832;SDS011;6987;19.472;-99.276;2024-01-11T00:45:33;2.22;;;1.48;;
13832;SDS011;6987;19.472;-99.276;2024-01-11T00:48:02;1.65;;;1.38;;
13832;SDS011;6987;19.472;-99.276;2024-01-11T00:50:32;1.45;;;1.10;;
13832;SDS011;6987;19.472;-99.276;2024-01-11T00:53:02;2.88;;;1.50;;
13832;SDS011;6987;19.472;-99.276;2024-01-11T00:55:31;1.45;;;1.05;;
13832;SDS011;6987;19.472;-99.276;2024-01-11T00:58:00;1.40;;;1.27;;
13832;SDS011;6987;19.472;-99.276;2024-01-11T01:00:29;1.23;;;1.13;;
13832;SDS011;6987;19.472;-99.276;2024-01-11T01:02:58;2.70;;;1.13;;
13832;SDS011;6987;19.472;-99.276;2024-01-11T01:05:28;1.77;;;1.13;;
13832;SDS011;6987;19.472;-99.276;2024-01-11T01:07:56;8.55;;;1.58;;
13832;SDS011;6987;19.472;-99.276;2024-01-11T01:10:27;2.03;;;1.25;;
13832;SDS011;6987;19.472;-99.276;2024-01-11T01:12:56;2.08;;;1.35;;
13832;SDS011;6987;19.472;-99.276;2024-01-11T01:15:25;1.25;;;1.25;;
13832;SDS011;6987;19.472;-99.276;2024-01-11T01:17:54;1.13;;;1.13;;
13832;SDS011;6987;19.472;-99.276;2024-01-11T01:20:23;2.63;;;0.82;;
13832;SDS011;6987;19.472;-99.276;2024-01-11T01:22:52;1.52;;;1.02;;
13832;SDS011;6987;19.472;-99.276;2024-01-11T01:25:21;8.25;;;1.40;;
13832;SDS011;6987;19.472;-99.276;2024-01-11T01:27:51;2.95;;;1.70;;
13832;SDS011;6987;19.472;-99.276;2024-01-11T01:30:20;3.65;;;1.42;;
13832;SDS011;6987;19.472;-99.276;2024-01-11T01:32:49;1.45;;;0.98;;
13832;SDS011;6987;19.472;-99.276;2024-01-11T01:35:18;1.85;;;1.20;;
13832;SDS011;6987;19.472;-99.276;2024-01-11T01:37:46;1.42;;;1.10;;
13832;SDS011;6987;19.472;-99.276;2024-01-11T01:40:15;0.90;;;0.90;;
13832;SDS011;6987;19.472;-99.276;2024-01-11T01:42:44;1.25;;;0.95;;
13832;SDS011;6987;19.472;-99.276;2024-01-11T01:45:16;1.98;;;1.17;;
13832;SDS011;6987;19.472;-99.276;2024-01-11T01:47:44;1.48;;;0.82;;
13832;SDS011;6987;19.472;-99.276;2024-01-11T01:50:14;2.17;;;1.30;;
13832;SDS011;6987;19.472;-99.276;2024-01-11T01:52:43;2.70;;;1.92;;
13832;SDS011;6987;19.472;-99.276;2024-01-11T01:55:12;3.28;;;1.23;;
13832;SDS011;6987;19.472;-99.276;2024-01-11T01:57:43;1.35;;;0.90;;
13832;SDS011;6987;19.472;-99.276;2024-01-11T02:00:15;1.50;;;1.00;;
13832;SDS011;6987;19.472;-99.276;2024-01-11T02:02:44;1.63;;;1.20;;
13832;SDS011;6987;19.472;-99.276;2024-01-11T02:05:14;5.82;;;1.83;;
13832;SDS011;6987;19.472;-99.276;2024-01-11T02:07:45;20.10;;;3.08;;
13832;SDS011;6987;19.472;-99.276;2024-01-11T02:10:13;8.32;;;3.05;;
13832;SDS011;6987;19.472;-99.276;2024-01-11T02:12:42;3.30;;;1.95;;
13832;SDS011;6987;19.472;-99.276;2024-01-11T02:15:12;8.25;;;2.40;;
13832;SDS011;6987;19.472;-99.276;2024-01-11T02:17:43;11.90;;;3.25;;
13832;SDS011;6987;19.472;-99.276;2024-01-11T02:20:12;9.65;;;3.38;;
13832;SDS011;6987;19.472;-99.276;2024-01-11T02:22:42;9.45;;;2.75;;
13832;SDS011;6987;19.472;-99.276;2024-01-11T02:25:14;10.40;;;2.72;;
13832;SDS011;6987;19.472;-99.276;2024-01-11T02:27:46;8.32;;;2.67;;
13832;SDS011;6987;19.472;-99.276;2024-01-11T02:30:15;9.05;;;3.15;;
13832;SDS011;6987;19.472;-99.276;2024-01-11T02:32:44;9.40;;;3.28;;
13832;SDS011;6987;19.472;-99.276;2024-01-11T02:35:14;12.02;;;2.88;;
13832;SDS011;6987;19.472;-99.276;2024-01-11T02:37:43;8.00;;;3.10;;
13832;SDS011;6987;19.472;-99.276;2024-01-11T02:40:15;4.60;;;2.40;;
13832;SDS011;6987;19.472;-99.276;2024-01-11T02:42:44;9.10;;;2.78;;
13832;SDS011;6987;19.472;-99.276;2024-01-11T02:45:13;11.60;;;3.42;;
13832;SDS011;6987;19.472;-99.276;2024-01-11T02:47:42;9.20;;;3.42;;
13832;SDS011;6987;19.472;-99.276;2024-01-11T02:50:11;12.32;;;3.45;;
13832;SDS011;6987;19.472;-99.276;2024-01-11T02:52:40;14.88;;;2.75;;
13832;SDS011;6987;19.472;-99.276;2024-01-11T02:55:09;6.13;;;2.95;;
13832;SDS011;6987;19.472;-99.276;2024-01-11T02:57:39;13.27;;;3.35;;
13832;SDS011;6987;19.472;-99.276;2024-01-11T03:00:08;10.00;;;2.88;;
13832;SDS011;6987;19.472;-99.276;2024-01-11T03:02:37;6.80;;;3.13;;
13832;SDS011;6987;19.472;-99.276;2024-01-11T03:05:06;13.60;;;4.03;;
13832;SDS011;6987;19.472;-99.276;2024-01-11T03:07:36;7.75;;;3.10;;
13832;SDS011;6987;19.472;-99.276;2024-01-11T03:10:05;20.30;;;5.60;;
13832;SDS011;6987;19.472;-99.276;2024-01-11T03:12:34;8.25;;;3.00;;
13832;SDS011;6987;19.472;-99.276;2024-01-11T03:15:06;8.77;;;3.10;;
13832;SDS011;6987;19.472;-99.276;2024-01-11T03:17:35;15.35;;;6.57;;
13832;SDS011;6987;19.472;-99.276;2024-01-11T03:20:04;14.45;;;4.78;;
13832;SDS011;6987;19.472;-99.276;2024-01-11T03:22:33;11.85;;;3.67;;
13832;SDS011;6987;19.472;-99.276;2024-01-11T03:25:02;12.32;;;3.70;;
13832;SDS011;6987;19.472;-99.276;2024-01-11T03:27:31;11.13;;;5.78;;
13832;SDS011;6987;19.472;-99.276;2024-01-11T03:30:01;5.55;;;2.05;;
13832;SDS011;6987;19.472;-99.276;2024-01-11T03:32:32;2.47;;;1.88;;
13832;SDS011;6987;19.472;-99.276;2024-01-11T03:35:02;1.92;;;1.63;;
13832;SDS011;6987;19.472;-99.276;2024-01-11T03:37:31;11.20;;;3.60;;
13832;SDS011;6987;19.472;-99.276;2024-01-11T03:40:00;2.97;;;2.40;;
13832;SDS011;6987;19.472;-99.276;2024-01-11T03:42:29;7.20;;;3.53;;
13832;SDS011;6987;19.472;-99.276;2024-01-11T03:44:58;16.33;;;4.35;;
13832;SDS011;6987;19.472;-99.276;2024-01-11T03:47:27;9.27;;;3.03;;
13832;SDS011;6987;19.472;-99.276;2024-01-11T03:49:58;10.40;;;2.65;;
13832;SDS011;6987;19.472;-99.276;2024-01-11T03:52:26;7.40;;;2.20;;
13832;SDS011;6987;19.472;-99.276;2024-01-11T03:54:55;10.38;;;2.92;;
13832;SDS011;6987;19.472;-99.276;2024-01-11T03:57:25;8.93;;;1.80;;
13832;SDS011;6987;19.472;-99.276;2024-01-11T03:59:54;5.60;;;2.25;;
13832;SDS011;6987;19.472;-99.276;2024-01-11T04:02:24;12.43;;;2.78;;
13832;SDS011;6987;19.472;-99.276;2024-01-11T04:04:53;10.13;;;2.35;;
13832;SDS011;6987;19.472;-99.276;2024-01-11T04:07:24;8.65;;;2.28;;
13832;SDS011;6987;19.472;-99.276;2024-01-11T04:09:53;9.40;;;2.20;;
13832;SDS011;6987;19.472;-99.276;2024-01-11T04:12:22;6.55;;;2.47;;
13832;SDS011;6987;19.472;-99.276;2024-01-11T04:14:51;10.48;;;2.92;;
13832;SDS011;6987;19.472;-99.276;2024-01-11T04:17:19;9.18;;;2.03;;
13832;SDS011;6987;19.472;-99.276;2024-01-11T04:19:48;10.50;;;2.42;;
13832;SDS011;6987;19.472;-99.276;2024-01-11T04:22:17;10.18;;;2.20;;
13832;SDS011;6987;19.472;-99.276;2024-01-11T04:24:47;5.85;;;1.98;;
13832;SDS011;6987;19.472;-99.276;2024-01-11T04:27:16;9.23;;;2.30;;
13832;SDS011;6987;19.472;-99.276;2024-01-11T04:29:46;4.00;;;2.13;;
13832;SDS011;6987;19.472;-99.276;2024-01-11T04:32:15;11.48;;;1.80;;
13832;SDS011;6987;19.472;-99.276;2024-01-11T04:34:44;2.95;;;1.90;;
13832;SDS011;6987;19.472;-99.276;2024-01-11T04:37:13;4.88;;;1.70;;
13832;SDS011;6987;19.472;-99.276;2024-01-11T04:39:43;9.13;;;2.08;;
13832;SDS011;6987;19.472;-99.276;2024-01-11T04:42:15;4.40;;;2.00;;
13832;SDS011;6987;19.472;-99.276;2024-01-11T04:44:44;16.98;;;2.85;;
13832;SDS011;6987;19.472;-99.276;2024-01-11T04:47:12;8.73;;;2.13;;
13832;SDS011;6987;19.472;-99.276;2024-01-11T04:49:41;7.75;;;2.88;;
13832;SDS011;6987;19.472;-99.276;2024-01-11T04:52:10;11.27;;;2.20;;
13832;SDS011;6987;19.472;-99.276;2024-01-11T04:54:40;3.75;;;1.90;;
13832;SDS011;6987;19.472;-99.276;2024-01-11T04:57:08;11.60;;;2.05;;
13832;SDS011;6987;19.472;-99.276;2024-01-11T04:59:40;6.90;;;2.40;;
13832;SDS011;6987;19.472;-99.276;2024-01-11T05:02:09;4.00;;;1.90;;
13832;SDS011;6987;19.472;-99.276;2024-01-11T05:04:38;12.68;;;1.98;;
13832;SDS011;6987;19.472;-99.276;2024-01-11T05:07:08;10.73;;;2.65;;
13832;SDS011;6987;19.472;-99.276;2024-01-11T05:09:37;9.45;;;2.22;;
13832;SDS011;6987;19.472;-99.276;2024-01-11T05:12:06;8.77;;;2.17;;
13832;SDS011;6987;19.472;-99.276;2024-01-11T05:14:40;7.72;;;2.25;;
13832;SDS011;6987;19.472;-99.276;2024-01-11T05:17:09;8.43;;;3.42;;
13832;SDS011;6987;19.472;-99.276;2024-01-11T05:19:38;6.72;;;2.58;;
13832;SDS011;6987;19.472;-99.276;2024-01-11T05:22:07;10.48;;;2.17;;
13832;SDS011;6987;19.472;-99.276;2024-01-11T05:24:36;10.43;;;2.90;;
13832;SDS011;6987;19.472;-99.276;2024-01-11T05:27:06;11.00;;;2.08;;
13832;SDS011;6987;19.472;-99.276;2024-01-11T05:29:35;4.03;;;2.30;;
13832;SDS011;6987;19.472;-99.276;2024-01-11T05:32:07;7.97;;;2.75;;
13832;SDS011;6987;19.472;-99.276;2024-01-11T05:34:36;9.38;;;2.45;;
13832;SDS011;6987;19.472;-99.276;2024-01-11T05:37:05;7.47;;;2.35;;
13832;SDS011;6987;19.472;-99.276;2024-01-11T05:39:34;5.72;;;2.45;;
13832;SDS011;6987;19.472;-99.276;2024-01-11T05:42:03;8.65;;;2.50;;
13832;SDS011;6987;19.472;-99.276;2024-01-11T05:44:32;5.90;;;2.80;;
13832;SDS011;6987;19.472;-99.276;2024-01-11T05:47:01;10.07;;;2.97;;
13832;SDS011;6987;19.472;-99.276;2024-01-11T05:49:32;7.80;;;2.25;;
13832;SDS011;6987;19.472;-99.276;2024-01-11T05:52:01;4.50;;;2.50;;
13832;SDS011;6987;19.472;-99.276;2024-01-11T05:54:30;7.28;;;3.00;;
13832;SDS011;6987;19.472;-99.276;2024-01-11T05:56:58;9.52;;;3.08;;
13832;SDS011;6987;19.472;-99.276;2024-01-11T05:59:28;13.40;;;3.15;;
13832;SDS011;6987;19.472;-99.276;2024-01-11T06:01:58;14.80;;;3.20;;
13832;SDS011;6987;19.472;-99.276;2024-01-11T06:04:27;6.60;;;2.95;;
13832;SDS011;6987;19.472;-99.276;2024-01-11T06:06:59;9.82;;;3.58;;
13832;SDS011;6987;19.472;-99.276;2024-01-11T06:09:28;6.32;;;3.13;;
13832;SDS011;6987;19.472;-99.276;2024-01-11T06:11:57;20.70;;;3.33;;
13832;SDS011;6987;19.472;-99.276;2024-01-11T06:14:26;6.13;;;3.10;;
13832;SDS011;6987;19.472;-99.276;2024-01-11T06:16:55;8.98;;;3.92;;
13832;SDS011;6987;19.472;-99.276;2024-01-11T06:19:24;15.10;;;4.45;;
13832;SDS011;6987;19.472;-99.276;2024-01-11T06:21:53;6.88;;;3.75;;
13832;SDS011;6987;19.472;-99.276;2024-01-11T06:24:24;10.98;;;3.28;;
13832;SDS011;6987;19.472;-99.276;2024-01-11T06:26:53;7.60;;;3.40;;
13832;SDS011;6987;19.472;-99.276;2024-01-11T06:29:22;5.90;;;2.85;;
13832;SDS011;6987;19.472;-99.276;2024-01-11T06:31:51;7.82;;;3.10;;
13832;SDS011;6987;19.472;-99.276;2024-01-11T06:34:19;17.17;;;3.60;;
13832;SDS011;6987;19.472;-99.276;2024-01-11T06:36:48;9.07;;;2.53;;
13832;SDS011;6987;19.472;-99.276;2024-01-11T06:39:17;6.15;;;2.85;;
13832;SDS011;6987;19.472;-99.276;2024-01-11T06:41:48;10.80;;;2.88;;
13832;SDS011;6987;19.472;-99.276;2024-01-11T06:44:17;9.73;;;2.70;;
13832;SDS011;6987;19.472;-99.276;2024-01-11T06:46:45;4.50;;;2.65;;
13832;SDS011;6987;19.472;-99.276;2024-01-11T06:49:14;5.95;;;2.88;;
13832;SDS011;6987;19.472;-99.276;2024-01-11T06:51:43;3.47;;;2.20;;
13832;SDS011;6987;19.472;-99.276;2024-01-11T06:54:12;4.22;;;2.80;;
13832;SDS011;6987;19.472;-99.276;2024-01-11T06:56:40;7.30;;;2.55;;
13832;SDS011;6987;19.472;-99.276;2024-01-11T06:59:11;8.75;;;2.55;;
13832;SDS011;6987;19.472;-99.276;2024-01-11T07:01:40;3.30;;;2.17;;
13832;SDS011;6987;19.472;-99.276;2024-01-11T07:04:09;11.18;;;2.67;;
13832;SDS011;6987;19.472;-99.276;2024-01-11T07:06:39;10.13;;;2.90;;
13832;SDS011;6987;19.472;-99.276;2024-01-11T07:09:08;5.30;;;1.98;;
13832;SDS011;6987;19.472;-99.276;2024-01-11T07:11:36;6.43;;;2.90;;
13832;SDS011;6987;19.472;-99.276;2024-01-11T07:14:06;4.93;;;3.15;;
13832;SDS011;6987;19.472;-99.276;2024-01-11T07:16:37;12.88;;;3.20;;
13832;SDS011;6987;19.472;-99.276;2024-01-11T07:19:06;6.57;;;3.40;;
13832;SDS011;6987;19.472;-99.276;2024-01-11T07:21:36;6.03;;;2.67;;
13832;SDS011;6987;19.472;-99.276;2024-01-11T07:24:05;7.55;;;2.75;;
13832;SDS011;6987;19.472;-99.276;2024-01-11T07:26:34;8.52;;;4.00;;
13832;SDS011;6987;19.472;-99.276;2024-01-11T07:29:03;8.38;;;3.03;;
13832;SDS011;6987;19.472;-99.276;2024-01-11T07:31:33;7.55;;;3.08;;
13832;SDS011;6987;19.472;-99.276;2024-01-11T07:34:05;7.45;;;3.20;;
13832;SDS011;6987;19.472;-99.276;2024-01-11T07:36:34;4.57;;;2.67;;
13832;SDS011;6987;19.472;-99.276;2024-01-11T07:39:03;5.30;;;2.85;;
13832;SDS011;6987;19.472;-99.276;2024-01-11T07:41:32;4.90;;;2.40;;
13832;SDS011;6987;19.472;-99.276;2024-01-11T07:44:01;5.47;;;2.20;;
13832;SDS011;6987;19.472;-99.276;2024-01-11T07:46:30;3.20;;;2.00;;
13832;SDS011;6987;19.472;-99.276;2024-01-11T07:48:59;2.35;;;2.13;;
13832;SDS011;6987;19.472;-99.276;2024-01-11T07:51:30;8.15;;;2.38;;
13832;SDS011;6987;19.472;-99.276;2024-01-11T07:54:00;3.47;;;2.25;;
13832;SDS011;6987;19.472;-99.276;2024-01-11T07:56:30;4.60;;;2.28;;
13832;SDS011;6987;19.472;-99.276;2024-01-11T07:59:00;3.70;;;2.10;;
13832;SDS011;6987;19.472;-99.276;2024-01-11T08:01:30;3.35;;;2.30;;
13832;SDS011;6987;19.472;-99.276;2024-01-11T08:04:01;6.28;;;2.22;;
13832;SDS011;6987;19.472;-99.276;2024-01-11T08:06:33;2.30;;;2.08;;
13832;SDS011;6987;19.472;-99.276;2024-01-11T08:09:02;6.05;;;1.73;;
13832;SDS011;6987;19.472;-99.276;2024-01-11T08:11:35;8.45;;;2.10;;
13832;SDS011;6987;19.472;-99.276;2024-01-11T08:14:04;3.50;;;2.00;;
13832;SDS011;6987;19.472;-99.276;2024-01-11T08:16:33;8.77;;;2.03;;
13832;SDS011;6987;19.472;-99.276;2024-01-11T08:19:03;2.60;;;2.05;;
13832;SDS011;6987;19.472;-99.276;2024-01-11T08:21:34;2.10;;;1.92;;
13832;SDS011;6987;19.472;-99.276;2024-01-11T08:24:03;2.83;;;2.20;;
13832;SDS011;6987;19.472;-99.276;2024-01-11T08:26:32;3.33;;;1.98;;
13832;SDS011;6987;19.472;-99.276;2024-01-11T08:29:01;2.47;;;2.20;;
13832;SDS011;6987;19.472;-99.276;2024-01-11T08:31:30;2.22;;;1.83;;
13832;SDS011;6987;19.472;-99.276;2024-01-11T08:34:00;3.45;;;1.73;;
13832;SDS011;6987;19.472;-99.276;2024-01-11T08:36:30;1.90;;;1.70;;
13832;SDS011;6987;19.472;-99.276;2024-01-11T08:39:02;4.32;;;1.77;;
13832;SDS011;6987;19.472;-99.276;2024-01-11T08:41:32;4.65;;;1.80;;
13832;SDS011;6987;19.472;-99.276;2024-01-11T08:44:01;3.22;;;1.92;;
13832;SDS011;6987;19.472;-99.276;2024-01-11T08:46:31;2.65;;;1.83;;
13832;SDS011;6987;19.472;-99.276;2024-01-11T08:49:01;4.25;;;2.20;;
13832;SDS011;6987;19.472;-99.276;2024-01-11T08:51:31;2.80;;;2.20;;
13832;SDS011;6987;19.472;-99.276;2024-01-11T08:54:00;2.85;;;1.90;;
13832;SDS011;6987;19.472;-99.276;2024-01-11T08:56:31;4.78;;;2.00;;
13832;SDS011;6987;19.472;-99.276;2024-01-11T08:59:01;3.20;;;2.13;;
13832;SDS011;6987;19.472;-99.276;2024-01-11T09:01:30;1.83;;;1.73;;
13832;SDS011;6987;19.472;-99.276;2024-01-11T09:04:01;3.03;;;2.08;;
13832;SDS011;6987;19.472;-99.276;2024-01-11T09:06:30;4.00;;;2.03;;
13832;SDS011;6987;19.472;-99.276;2024-01-11T09:09:00;2.92;;;2.03;;
13832;SDS011;6987;19.472;-99.276;2024-01-11T09:11:37;4.38;;;2.25;;
13832;SDS011;6987;19.472;-99.276;2024-01-11T09:14:06;5.30;;;2.00;;
13832;SDS011;6987;19.472;-99.276;2024-01-11T09:16:36;2.97;;;2.05;;
13832;SDS011;6987;19.472;-99.276;2024-01-11T09:19:06;2.70;;;2.47;;
13832;SDS011;6987;19.472;-99.276;2024-01-11T09:21:36;2.17;;;1.98;;
13832;SDS011;6987;19.472;-99.276;2024-01-11T09:24:05;8.18;;;2.63;;
13832;SDS011;6987;19.472;-99.276;2024-01-11T09:26:36;2.45;;;2.30;;
13832;SDS011;6987;19.472;-99.276;2024-01-11T09:29:05;7.65;;;2.78;;
13832;SDS011;6987;19.472;-99.276;2024-01-11T09:31:34;10.93;;;2.90;;
13832;SDS011;6987;19.472;-99.276;2024-01-11T09:34:03;4.97;;;2.70;;
13832;SDS011;6987;19.472;-99.276;2024-01-11T09:36:33;2.72;;;2.38;;
13832;SDS011;6987;19.472;-99.276;2024-01-11T09:39:04;5.22;;;2.90;;
13832;SDS011;6987;19.472;-99.276;2024-01-11T09:41:37;2.88;;;2.58;;
13832;SDS011;6987;19.472;-99.276;2024-01-11T09:44:06;4.90;;;2.53;;
13832;SDS011;6987;19.472;-99.276;2024-01-11T09:46:36;3.60;;;2.92;;
13832;SDS011;6987;19.472;-99.276;2024-01-11T09:49:05;7.80;;;2.88;;
13832;SDS011;6987;19.472;-99.276;2024-01-11T09:51:34;5.10;;;2.95;;
13832;SDS011;6987;19.472;-99.276;2024-01-11T09:54:06;5.68;;;3.38;;
13832;SDS011;6987;19.472;-99.276;2024-01-11T09:56:38;8.25;;;3.13;;
13832;SDS011;6987;19.472;-99.276;2024-01-11T09:59:07;6.13;;;3.15;;
13832;SDS011;6987;19.472;-99.276;2024-01-11T10:01:37;3.22;;;2.85;;
13832;SDS011;6987;19.472;-99.276;2024-01-11T10:04:06;4.28;;;2.92;;
13832;SDS011;6987;19.472;-99.276;2024-01-11T10:06:35;4.70;;;2.80;;
13832;SDS011;6987;19.472;-99.276;2024-01-11T10:09:05;3.67;;;3.30;;
13832;SDS011;6987;19.472;-99.276;2024-01-11T10:11:34;7.25;;;3.25;;
13832;SDS011;6987;19.472;-99.276;2024-01-11T10:14:05;4.07;;;2.88;;
13832;SDS011;6987;19.472;-99.276;2024-01-11T10:16:34;4.43;;;3.25;;
13832;SDS011;6987;19.472;-99.276;2024-01-11T10:19:02;5.00;;;2.90;;
13832;SDS011;6987;19.472;-99.276;2024-01-11T10:21:31;3.35;;;2.80;;
13832;SDS011;6987;19.472;-99.276;2024-01-11T10:24:00;7.30;;;3.50;;
13832;SDS011;6987;19.472;-99.276;2024-01-11T10:26:30;6.72;;;3.35;;
13832;SDS011;6987;19.472;-99.276;2024-01-11T10:28:59;6.20;;;3.13;;
13832;SDS011;6987;19.472;-99.276;2024-01-11T10:31:30;9.68;;;3.30;;
13832;SDS011;6987;19.472;-99.276;2024-01-11T10:34:00;5.60;;;3.17;;
13832;SDS011;6987;19.472;-99.276;2024-01-11T10:36:30;7.38;;;3.30;;
13832;SDS011;6987;19.472;-99.276;2024-01-11T10:38:59;4.93;;;2.95;;
13832;SDS011;6987;19.472;-99.276;2024-01-11T10:41:32;3.30;;;2.83;;
13832;SDS011;6987;19.472;-99.276;2024-01-11T10:44:01;4.32;;;3.25;;
13832;SDS011;6987;19.472;-99.276;2024-01-11T10:46:32;4.30;;;3.13;;
13832;SDS011;6987;19.472;-99.276;2024-01-11T10:49:02;3.17;;;2.70;;
13832;SDS011;6987;19.472;-99.276;2024-01-11T10:51:32;8.32;;;3.58;;
13832;SDS011;6987;19.472;-99.276;2024-01-11T10:54:01;4.25;;;2.78;;
13832;SDS011;6987;19.472;-99.276;2024-01-11T10:56:30;4.20;;;2.85;;
13832;SDS011;6987;19.472;-99.276;2024-01-11T10:59:00;5.97;;;3.33;;
13832;SDS011;6987;19.472;-99.276;2024-01-11T11:01:32;3.47;;;2.90;;
13832;SDS011;6987;19.472;-99.276;2024-01-11T11:04:01;5.88;;;3.33;;
13832;SDS011;6987;19.472;-99.276;2024-01-11T11:06:31;3.67;;;3.10;;
13832;SDS011;6987;19.472;-99.276;2024-01-11T11:09:00;6.93;;;3.30;;
13832;SDS011;6987;19.472;-99.276;2024-01-11T11:11:29;5.22;;;3.00;;
13832;SDS011;6987;19.472;-99.276;2024-01-11T11:14:00;4.50;;;3.20;;
13832;SDS011;6987;19.472;-99.276;2024-01-11T11:16:32;3.95;;;2.83;;
13832;SDS011;6987;19.472;-99.276;2024-01-11T11:19:01;2.95;;;2.33;;
13832;SDS011;6987;19.472;-99.276;2024-01-11T11:21:30;5.90;;;2.80;;
13832;SDS011;6987;19.472;-99.276;2024-01-11T11:23:59;2.70;;;2.47;;
13832;SDS011;6987;19.472;-99.276;2024-01-11T11:26:31;6.85;;;3.03;;
13832;SDS011;6987;19.472;-99.276;2024-01-11T11:29:01;6.40;;;3.17;;
13832;SDS011;6987;19.472;-99.276;2024-01-11T11:31:36;5.90;;;2.95;;
13832;SDS011;6987;19.472;-99.276;2024-01-11T11:34:06;4.00;;;2.60;;
13832;SDS011;6987;19.472;-99.276;2024-01-11T11:36:35;9.77;;;2.90;;
13832;SDS011;6987;19.472;-99.276;2024-01-11T11:39:05;10.90;;;2.70;;
13832;SDS011;6987;19.472;-99.276;2024-01-11T11:41:34;6.43;;;3.08;;
13832;SDS011;6987;19.472;-99.276;2024-01-11T11:44:04;5.28;;;2.70;;
13832;SDS011;6987;19.472;-99.276;2024-01-11T11:46:33;7.05;;;2.85;;
13832;SDS011;6987;19.472;-99.276;2024-01-11T11:49:04;4.90;;;2.72;;
13832;SDS011;6987;19.472;-99.276;2024-01-11T11:51:33;6.07;;;2.50;;
13832;SDS011;6987;19.472;-99.276;2024-01-11T11:54:04;7.68;;;3.45;;
13832;SDS011;6987;19.472;-99.276;2024-01-11T11:56:33;4.30;;;3.00;;
13832;SDS011;6987;19.472;-99.276;2024-01-11T11:59:03;6.03;;;2.78;;
13832;SDS011;6987;19.472;-99.276;2024-01-11T12:01:32;5.90;;;3.38;;
13832;SDS011;6987;19.472;-99.276;2024-01-11T12:04:04;12.70;;;3.63;;
13832;SDS011;6987;19.472;-99.276;2024-01-11T12:06:33;6.43;;;2.97;;
13832;SDS011;6987;19.472;-99.276;2024-01-11T12:09:03;9.88;;;2.95;;
13832;SDS011;6987;19.472;-99.276;2024-01-11T12:11:32;9.32;;;2.90;;
13832;SDS011;6987;19.472;-99.276;2024-01-11T12:14:01;5.85;;;2.90;;
13832;SDS011;6987;19.472;-99.276;2024-01-11T12:16:30;4.57;;;3.13;;
13832;SDS011;6987;19.472;-99.276;2024-01-11T12:18:59;5.05;;;3.08;;
13832;SDS011;6987;19.472;-99.276;2024-01-11T12:21:30;7.78;;;3.10;;
13832;SDS011;6987;19.472;-99.276;2024-01-11T12:23:59;5.68;;;3.05;;
13832;SDS011;6987;19.472;-99.276;2024-01-11T12:26:27;7.55;;;3.28;;
13832;SDS011;6987;19.472;-99.276;2024-01-11T12:28:56;8.07;;;2.28;;
13832;SDS011;6987;19.472;-99.276;2024-01-11T12:31:25;5.55;;;2.88;;
13832;SDS011;6987;19.472;-99.276;2024-01-11T12:33:54;7.97;;;3.97;;
13832;SDS011;6987;19.472;-99.276;2024-01-11T12:36:23;8.32;;;4.13;;
13832;SDS011;6987;19.472;-99.276;2024-01-11T12:38:54;17.73;;;3.90;;
13832;SDS011;6987;19.472;-99.276;2024-01-11T12:41:24;8.65;;;3.83;;
13832;SDS011;6987;19.472;-99.276;2024-01-11T12:43:53;12.23;;;3.35;;
13832;SDS011;6987;19.472;-99.276;2024-01-11T12:46:22;6.45;;;3.20;;
13832;SDS011;6987;19.472;-99.276;2024-01-11T12:48:51;8.15;;;3.35;;
13832;SDS011;6987;19.472;-99.276;2024-01-11T12:51:20;16.85;;;3.65;;
13832;SDS011;6987;19.472;-99.276;2024-01-11T12:53:51;7.22;;;2.90;;
13832;SDS011;6987;19.472;-99.276;2024-01-11T12:56:22;12.02;;;3.50;;
13832;SDS011;6987;19.472;-99.276;2024-01-11T12:59:04;15.48;;;3.55;;
13832;SDS011;6987;19.472;-99.276;2024-01-11T13:01:34;8.95;;;3.67;;
13832;SDS011;6987;19.472;-99.276;2024-01-11T13:04:03;8.45;;;3.05;;
13832;SDS011;6987;19.472;-99.276;2024-01-11T13:06:33;6.57;;;2.97;;
13832;SDS011;6987;19.472;-99.276;2024-01-11T13:09:03;10.00;;;3.28;;
13832;SDS011;6987;19.472;-99.276;2024-01-11T13:11:36;14.35;;;3.67;;
13832;SDS011;6987;19.472;-99.276;2024-01-11T13:14:05;7.78;;;3.38;;
13832;SDS011;6987;19.472;-99.276;2024-01-11T13:16:37;18.45;;;3.95;;
13832;SDS011;6987;19.472;-99.276;2024-01-11T13:19:06;20.25;;;4.30;;
13832;SDS011;6987;19.472;-99.276;2024-01-11T13:21:36;11.15;;;3.90;;
13832;SDS011;6987;19.472;-99.276;2024-01-11T13:24:05;29.38;;;4.80;;
13832;SDS011;6987;19.472;-99.276;2024-01-11T13:26:37;16.25;;;4.28;;
13832;SDS011;6987;19.472;-99.276;2024-01-11T13:29:06;10.45;;;3.58;;
13832;SDS011;6987;19.472;-99.276;2024-01-11T13:31:36;17.05;;;3.72;;
13832;SDS011;6987;19.472;-99.276;2024-01-11T13:34:05;10.23;;;3.50;;
13832;SDS011;6987;19.472;-99.276;2024-01-11T13:36:34;24.75;;;4.72;;
13832;SDS011;6987;19.472;-99.276;2024-01-11T13:39:04;23.65;;;4.85;;
13832;SDS011;6987;19.472;-99.276;2024-01-11T13:41:34;19.65;;;4.38;;
13832;SDS011;6987;19.472;-99.276;2024-01-11T13:44:05;16.77;;;4.95;;
13832;SDS011;6987;19.472;-99.276;2024-01-11T13:46:35;22.60;;;4.57;;
13832;SDS011;6987;19.472;-99.276;2024-01-11T13:49:04;19.55;;;4.80;;
13832;SDS011;6987;19.472;-99.276;2024-01-11T13:51:33;17.15;;;4.43;;
13832;SDS011;6987;19.472;-99.276;2024-01-11T13:54:03;23.85;;;5.00;;
13832;SDS011;6987;19.472;-99.276;2024-01-11T13:56:32;21.98;;;5.18;;
13832;SDS011;6987;19.472;-99.276;2024-01-11T13:59:01;18.92;;;4.05;;
13832;SDS011;6987;19.472;-99.276;2024-01-11T14:01:32;18.52;;;4.55;;
13832;SDS011;6987;19.472;-99.276;2024-01-11T14:04:01;25.52;;;6.05;;
13832;SDS011;6987;19.472;-99.276;2024-01-11T14:06:30;23.88;;;5.90;;
13832;SDS011;6987;19.472;-99.276;2024-01-11T14:08:59;16.55;;;4.57;;
13832;SDS011;6987;19.472;-99.276;2024-01-11T14:11:30;17.98;;;4.43;;
13832;SDS011;6987;19.472;-99.276;2024-01-11T14:13:59;20.15;;;5.82;;
13832;SDS011;6987;19.472;-99.276;2024-01-11T14:16:33;21.35;;;5.65;;
13832;SDS011;6987;19.472;-99.276;2024-01-11T14:19:02;13.10;;;5.25;;
13832;SDS011;6987;19.472;-99.276;2024-01-11T14:21:31;21.17;;;4.63;;
13832;SDS011;6987;19.472;-99.276;2024-01-11T14:24:00;11.65;;;4.28;;
13832;SDS011;6987;19.472;-99.276;2024-01-11T14:26:29;13.98;;;4.20;;
13832;SDS011;6987;19.472;-99.276;2024-01-11T14:28:58;23.30;;;5.82;;
13832;SDS011;6987;19.472;-99.276;2024-01-11T14:31:28;33.90;;;5.70;;
13832;SDS011;6987;19.472;-99.276;2024-01-11T14:33:59;24.65;;;4.63;;
13832;SDS011;6987;19.472;-99.276;2024-01-11T14:36:27;20.60;;;5.05;;
13832;SDS011;6987;19.472;-99.276;2024-01-11T14:38:56;18.58;;;4.97;;
13832;SDS011;6987;19.472;-99.276;2024-01-11T14:41:25;34.97;;;5.85;;
13832;SDS011;6987;19.472;-99.276;2024-01-11T14:43:54;35.72;;;6.00;;